Latest Coastal Weather Observations for Port Hedland

IDW60701

Issued at 8:42 pm WST Wednesday 5 August 2015 (issued every 10 minutes, with the page automatically refreshed every 10 minutes)

About coastal observations | Map of coastal stations | Coastal observations for WA | Marine services | Other Formats
Station Details ID: 004032 Name: PORT HEDLAND AIRPORT Lat: -20.37 Lon: 118.63 Height: 6.4 m
Data from the previous 72 hours. | See also: Recent months at Port Hedland
Date/Time
WST
Temp

°C
Wind Pressure Rain
since 9am
mm
Weather Cloud Vis
km
Sea
Height
m
Swell
Dir
 
Speed
knots
Gust
knots
hPa Trend Height
m
Period
s
Dir
05/08:30pm 17.9 S 3 7 1018.0 - 0.0 - - 10 - - - -
05/08:00pm 18.5 CALM 0 0 1018.0 - 0.0 - - 10 - - - -
05/07:30pm 19.0 CALM 0 0 1017.8 - 0.0 - - 10 - - - -
05/07:00pm 19.8 CALM 0 0 1017.4 - 0.0 - - 10 - - - -
05/06:30pm 20.0 N 4 4 1017.1 - 0.0 - - 10 - - - -
05/06:00pm 21.8 N 5 5 1017.0 - 0.0 - - 10 - - - -
05/05:30pm 23.1 N 7 8 1016.8 - 0.0 - - 10 - - - -
05/05:00pm 24.5 N 10 12 1016.8 - 0.0 - - 10 - - - -
05/04:30pm 25.1 NNE 10 13 1016.8 - 0.0 - - 10 - - - -
05/04:00pm 25.1 N 11 14 1016.7 - 0.0 - - 10 - - - -
05/03:30pm 25.3 N 12 15 1016.6 - 0.0 - - 10 - - - -
05/03:00pm 26.0 NNE 13 15 1016.7 R 0.0 Fine Clear 30 - - - -
05/02:30pm 26.1 N 12 15 1016.9 - 0.0 - - 10 - - - -
05/02:00pm 26.2 N 11 13 1017.1 - 0.0 - - 10 - - - -
05/01:30pm 29.1 ENE 11 15 1017.4 - 0.0 - - 10 - - - -
05/01:00pm 28.4 E 13 18 1017.8 - 0.0 - - 10 - - - -
05/12:30pm 28.2 E 13 19 1018.3 - 0.0 - - 10 - - - -
05/12:00pm 27.7 E 14 19 1018.8 F 0.0 Fine Clear 30 - - - -
05/11:30am 27.2 E 13 17 1019.3 - 0.0 - - 10 - - - -
05/11:00am 25.9 ENE 17 21 1019.6 - 0.0 - - 10 - - - -
05/10:30am 25.2 E 16 23 1020.0 - 0.0 - - 10 - - - -
05/10:00am 24.6 E 18 25 1020.4 - 0.0 - - 10 - - - -
05/09:30am 23.5 E 19 24 1020.5 - 0.0 - - 10 - - - -
05/09:00am 22.6 E 20 26 1020.3 F 0.0 Fine Clear 30 - - - -
05/08:30am 21.9 E 18 24 1020.2 - 0.0 - - 10 - - - -
05/08:00am 20.8 ESE 16 23 1020.3 - 0.0 - - 10 - - - -
05/07:30am 19.1 SE 11 17 1020.2 - 0.0 - - 10 - - - -
05/07:00am 16.9 SE 8 11 1020.0 - 0.0 - - 10 - - - -
05/06:30am 16.5 SE 9 12 1019.6 - 0.0 - - 10 - - - -
05/06:00am 16.6 SE 9 11 1019.4 S 0.0 Fine Clear 30 - - - -
05/05:30am 17.3 ESE 9 11 1019.2 - 0.0 - - 10 - - - -
05/05:00am 17.6 ESE 9 12 1018.7 - 0.0 - - 10 - - - -
05/04:30am 17.8 ESE 10 13 1018.5 - 0.0 - - 10 - - - -
05/04:00am 17.9 SE 10 13 1018.5 - 0.0 - - 10 - - - -
05/03:30am 18.3 SE 9 13 1018.5 - 0.0 - - 10 - - - -
05/03:00am 18.6 SE 10 12 1018.6 - 0.0 - - 10 - - - -
05/02:30am 19.2 SE 9 13 1018.6 - 0.0 - - 10 - - - -
05/02:00am 19.5 SE 10 14 1018.6 - 0.0 - - 10 - - - -
05/01:30am 19.5 SE 10 14 1018.6 - 0.0 - - 10 - - - -
05/01:00am 19.3 SE 9 11 1018.8 - 0.0 - - 10 - - - -
05/12:30am 19.6 SE 8 11 1018.8 - 0.0 - - 10 - - - -
05/12:00am 20.1 SE 9 11 1018.9 - 0.0 - - 10 - - - -
 
Date/Time
WST
Temp

°C
Wind Pressure Rain
since 9am
mm
Weather Cloud Vis
km
Sea
Height
m
Swell
Dir
 
Speed
knots
Gust
knots
hPa Trend Height
m
Period
s
Dir
04/11:30pm 18.5 SE 7 8 1019.0 - 0.0 - - 10 - - - -
04/11:00pm 19.3 SSE 8 10 1019.0 - 0.0 - - 10 - - - -
04/10:30pm 18.2 SSE 8 10 1019.2 - 0.0 - - 10 - - - -
04/10:00pm 18.7 SSE 7 8 1019.2 - 0.0 - - 10 - - - -
04/09:30pm 18.9 SSE 8 9 1019.2 - 0.0 - - 10 - - - -
04/09:00pm 19.6 SSE 8 9 1019.2 - 0.0 - - 10 - - - -
04/08:30pm 20.4 SSE 8 9 1019.1 - 0.0 - - 10 - - - -
04/08:00pm 21.2 SSE 9 10 1018.9 - 0.0 - - 10 - - - -
04/07:30pm 22.3 SSE 7 8 1018.7 - 0.0 - - 10 - - - -
04/07:00pm 23.1 SSE 7 8 1018.5 - 0.0 - - 10 - - - -
04/06:30pm 25.2 SE 6 8 1018.2 - 0.0 - - 10 - - - -
04/06:00pm 26.6 SE 7 9 1018.0 - 0.0 - - 10 - - - -
04/05:30pm 28.1 SE 9 11 1017.7 - 0.0 - - 10 - - - -
04/05:00pm 28.8 ESE 9 14 1017.6 - 0.0 - - 10 - - - -
04/04:30pm 29.1 SE 9 13 1017.5 - 0.0 - - 10 - - - -
04/04:00pm 29.2 SE 11 16 1017.3 - 0.0 - - 10 - - - -
04/03:30pm 29.7 E 12 17 1017.4 - 0.0 - - 10 - - - -
04/03:00pm 29.6 ESE 12 17 1017.6 F 0.0 Fine Clear 30 - - - -
04/02:30pm 29.6 SE 13 21 1018.1 - 0.0 - - 10 - - - -
04/02:00pm 29.2 SE 11 16 1018.3 - 0.0 - - 10 - - - -
04/01:30pm 29.1 ESE 14 21 1018.6 - 0.0 - - 10 - - - -
04/01:00pm 28.7 ESE 15 21 1019.0 - 0.0 - - 10 - - - -
04/12:30pm 28.2 ESE 15 24 1019.5 - 0.0 - - 10 - - - -
04/12:00pm 27.4 ESE 14 22 1019.9 F 0.0 Fine Clear 30 - - - -
04/11:30am 26.8 ESE 16 25 1020.4 - 0.0 - - 10 - - - -
04/11:00am 26.3 ESE 16 23 1020.8 - 0.0 - - 10 - - - -
04/10:34am 25.7 ESE 16 26 1021.2 - 0.0 - - 10 - - - -
04/10:30am 25.6 ESE 17 23 1021.3 - 0.0 - - 10 - - - -
04/10:00am 24.7 ESE 18 24 1021.6 - 0.0 - - 10 - - - -
04/09:30am 23.7 ESE 19 26 1021.8 - 0.0 - - 10 - - - -
04/09:00am 22.7 SE 16 23 1022.0 R 0.0 Fine Clear 30 - - - -
04/08:40am 22.2 SE 15 25 1021.9 - 0.0 - - 10 - - - -
04/08:30am 21.7 SE 16 24 1021.8 - 0.0 - - 10 - - - -
04/08:00am 20.8 SE 13 19 1021.6 - 0.0 - - 10 - - - -
04/07:30am 19.7 SE 12 17 1021.3 - 0.0 - - 10 - - - -
04/07:00am 18.9 SE 12 18 1021.0 - 0.0 - - 10 - - - -
04/06:30am 18.6 SE 12 16 1020.5 - 0.0 - - 10 - - - -
04/06:00am 18.7 SE 11 15 1020.3 F 0.0 Fine Clear 30 - - - -
04/05:30am 18.9 SE 11 15 1020.1 - 0.0 - - 10 - - - -
04/05:00am 19.1 SE 11 16 1019.8 - 0.0 - - 10 - - - -
04/04:30am 19.3 SE 11 14 1019.8 - 0.0 - - 10 - - - -
04/04:00am 19.4 SE 10 15 1019.9 - 0.0 - - 10 - - - -
04/03:30am 19.6 SE 10 15 1019.8 - 0.0 - - 10 - - - -
04/03:00am 19.9 SE 10 14 1019.7 - 0.0 - - 10 - - - -
04/02:30am 20.1 SE 10 16 1019.9 - 0.0 - - 10 - - - -
04/02:00am 20.4 SE 10 13 1019.9 - 0.0 - - 10 - - - -
04/01:30am 20.6 SE 9 12 1020.0 - 0.0 - - 10 - - - -
04/01:00am 20.9 SE 9 13 1020.1 - 0.0 - - 10 - - - -
04/12:30am 21.4 SE 11 15 1020.2 - 0.0 - - 10 - - - -
04/12:00am 21.6 SE 10 15 1020.2 - 0.0 - - 10 - - - -
 
Date/Time
WST
Temp

°C
Wind Pressure Rain
since 9am
mm
Weather Cloud Vis
km
Sea
Height
m
Swell
Dir
 
Speed
knots
Gust
knots
hPa Trend Height
m
Period
s
Dir
03/11:30pm 21.6 SE 10 13 1020.4 - 0.0 - - 10 - - - -
03/11:00pm 22.0 SE 9 13 1020.6 - 0.0 - - 10 - - - -
03/10:30pm 21.7 SE 9 11 1020.9 - 0.0 - - 10 - - - -
03/10:00pm 19.3 SSE 7 8 1020.8 - 0.0 - - 10 - - - -
03/09:30pm 20.3 SSE 7 8 1020.7 - 0.0 - - 10 - - - -
03/09:00pm 20.8 SSE 7 9 1020.7 - 0.0 - - 10 - - - -
03/08:30pm 22.3 SSE 7 9 1020.4 - 0.0 - - 10 - - - -
03/08:00pm 23.3 SE 7 9 1020.1 - 0.0 - - 10 - - - -
03/07:30pm 24.3 SE 7 9 1019.7 - 0.0 - - 10 - - - -
03/07:00pm 25.0 SE 7 9 1019.3 - 0.0 - - 10 - - - -
03/06:30pm 26.1 SE 8 10 1019.1 - 0.0 - - 10 - - - -
03/06:00pm 27.4 ESE 9 11 1018.9 - 0.0 - - 10 - - - -
03/05:30pm 28.6 ESE 13 19 1018.4 - 0.0 - - 10 - - - -
03/05:00pm 29.4 ESE 15 21 1018.1 - 0.0 - - 10 - - - -
03/04:30pm 29.8 SE 14 19 1018.0 - 0.0 - - 10 - - - -
03/04:00pm 30.1 ESE 15 20 1018.0 - 0.0 - - 10 - - - -
03/03:30pm 30.3 E 17 20 1018.0 - 0.0 - - 10 - - - -
03/03:00pm 30.5 ESE 14 21 1018.2 F 0.0 Fine Clear 30 - - - -
03/02:30pm 30.2 E 18 24 1018.3 - 0.0 - - 10 - - - -
03/02:00pm 29.8 ESE 15 22 1018.7 - 0.0 - - 10 - - - -
03/01:30pm 29.4 ESE 15 21 1019.1 - 0.0 - - 10 - - - -
03/01:00pm 28.6 ESE 17 26 1019.5 - 0.0 - - 10 - - - -
03/12:52pm 28.8 E 18 28 1019.7 - 0.0 - - 10 - - - -
03/12:30pm 28.7 ESE 17 25 1020.1 - 0.0 - - 10 - - - -
03/12:00pm 27.6 SE 16 28 1020.7 R 0.0 Fine Clear 30 - - - -
03/11:56am 27.6 ESE 16 28 1020.7 - 0.0 - - 10 - - - -
03/11:30am 27.6 E 18 25 1021.1 - 0.0 - - 10 - - - -
03/11:00am 26.1 ESE 18 26 1021.7 - 0.0 - - 10 - - - -
03/10:30am 25.3 ESE 19 25 1021.9 - 0.0 - - 10 - - - -
03/10:00am 25.3 ESE 20 27 1021.8 - 0.0 - - 10 - - - -
03/09:33am 24.5 ESE 17 27 1021.8 - 0.0 - - 10 - - - -
03/09:30am 24.4 ESE 19 27 1021.9 - 0.0 - - 10 - - - -
03/09:00am 23.4 SE 19 26 1021.6 R 0.0 Fine Clear 30 - - - -
03/08:30am 22.5 ESE 18 25 1021.3 - 0.0 - - 10 - - - -
03/08:00am 21.7 ESE 14 20 1021.1 - 0.0 - - 10 - - - -
03/07:30am 21.0 SE 11 16 1020.7 - 0.0 - - 10 - - - -
03/07:00am 19.8 SE 9 14 1020.2 - 0.0 - - 10 - - - -
03/06:30am 19.2 SE 7 10 1019.8 - 0.0 - - 10 - - - -
03/06:00am 18.5 ESE 6 9 1019.3 S 0.0 Fine Clear 30 - - - -
03/05:30am 18.2 SE 6 7 1019.0 - 0.0 - - 10 - - - -
03/05:00am 18.0 SE 6 7 1018.7 - 0.0 - - 10 - - - -
03/04:30am 18.6 SE 7 9 1018.7 - 0.0 - - 10 - - - -
03/04:00am 19.7 ESE 9 14 1018.6 - 0.0 - - 10 - - - -
03/03:30am 19.3 ESE 9 11 1018.4 - 0.0 - - 10 - - - -
03/03:00am 19.0 ESE 8 11 1018.5 - 0.0 - - 10 - - - -
03/02:30am 19.5 ESE 11 13 1018.3 - 0.0 - - 10 - - - -
03/02:00am 16.8 E 5 7 1018.5 - 0.0 - - 10 - - - -
03/01:30am 16.6 ESE 4 6 1018.5 - 0.0 - - 10 - - - -
03/01:00am 16.5 ESE 4 5 1018.5 - 0.0 - - 10 - - - -
03/12:30am 17.8 S 7 8 1018.6 - 0.0 - - 10 - - - -
03/12:00am 18.3 S 5 7 1018.6 - 0.0 - - 10 - - - -
 
Date/Time
WST
Temp

°C
Wind Pressure Rain
since 9am
mm
Weather Cloud Vis
km
Sea
Height
m
Swell
Dir
 
Speed
knots
Gust
knots
hPa Trend Height
m
Period
s
Dir
02/11:30pm 18.4 S 6 7 1018.7 - 0.0 - - 10 - - - -
02/11:00pm 18.2 SSW 6 8 1018.8 - 0.0 - - 10 - - - -
02/10:30pm 17.9 SW 5 5 1019.1 - 0.0 - - 10 - - - -
02/10:00pm 18.6 SW 6 6 1019.2 - 0.0 - - 10 - - - -
02/09:30pm 19.0 SW 5 6 1019.2 - 0.0 - - 10 - - - -
02/09:00pm 19.3 SSW 6 7 1019.1 - 0.0 - - 10 - - - -

Other Formats:

Comma delimited format used in spreadsheet applications
http://www.bom.gov.au/fwo/IDW60701/IDW60701.94312.axf

JavaScript Object Notation format (JSON) in row-major order
http://www.bom.gov.au/fwo/IDW60701/IDW60701.94312.json